ePrivacy and GPDR Cookie Consent by Cookie Consent
EmailTwitter


Observations de surface / Québec / CYUL (71627)

Régions: Québec | Canada | États-Unis | Europe | France | UK | Ailleurs
Station
Affichage
Infos & localisation pour CYUL (71627) | Aide pour décoder les METARs

Observations prises le 2023-01-28 à 09H25 UTC à MONTREAL INTL A, QB (CYUL)

Etat du ciel: couvert.

Obstacle(s) à la visibilité: faible neige et poudrerie basse.

Température: -1.0 Celsius

Point de rosée: -5.0 Celsius

Humidité relative: 74%

Facteur vent: -8.

Vents: Sud à 28 km/h ou 15 noeuds.

Pression au niveau moyen de la mer: 101.21 kilopascals.

Calage altimétrique: 101.18 kilopascals ou 29.88 pouces de mercure.

Visibilité horizontale: 1.75 milles terrestres ou 2.80 kilomètres.

Hauteur du plafond: 610 mètres ( 2000 pieds ).

Observation METAR:

CYUL 280925Z 18015KT 1 3/4SM -SN DRSN OVC020 M01/M05 A2988 RMK SC8 SLP121=